createdAt,value
2024-05-09T00:00:39.313Z,10.51
2024-05-09T00:01:35.267Z,10.51
2024-05-09T00:02:35.187Z,10.49
2024-05-09T00:03:35.250Z,10.49
2024-05-09T00:04:35.199Z,10.48
2024-05-09T00:05:35.427Z,10.45
2024-05-09T00:06:35.087Z,10.38
2024-05-09T00:07:35.091Z,10.31
2024-05-09T00:08:35.152Z,10.31
2024-05-09T00:09:35.077Z,10.30
2024-05-09T00:10:37.823Z,10.28
2024-05-09T00:11:35.223Z,10.27
2024-05-09T00:12:35.018Z,10.27
2024-05-09T00:13:34.995Z,10.25
2024-05-09T00:14:35.016Z,10.21
2024-05-09T00:15:35.761Z,10.20
2024-05-09T00:16:35.021Z,10.23
2024-05-09T00:17:35.101Z,10.25
2024-05-09T00:18:35.035Z,10.25
2024-05-09T00:19:35.024Z,10.25
2024-05-09T00:20:39.043Z,10.28
2024-05-09T00:21:34.912Z,10.31
2024-05-09T00:22:34.887Z,10.31
2024-05-09T00:23:34.941Z,10.28
2024-05-09T00:24:34.849Z,10.31
2024-05-09T00:25:35.486Z,10.33
2024-05-09T00:26:34.949Z,10.33
2024-05-09T00:27:34.830Z,10.33
2024-05-09T00:28:34.801Z,10.33
2024-05-09T00:29:34.819Z,10.33
2024-05-09T00:30:36.729Z,10.34
2024-05-09T00:31:34.760Z,10.33
2024-05-09T00:32:34.902Z,10.30
2024-05-09T00:33:34.915Z,10.21
2024-05-09T00:34:34.752Z,10.21
2024-05-09T00:35:34.787Z,10.20
2024-05-09T00:36:34.691Z,10.18
2024-05-09T00:37:34.692Z,10.15
2024-05-09T00:38:34.734Z,10.15
2024-05-09T00:39:34.654Z,10.17
2024-05-09T00:40:39.452Z,10.17
2024-05-09T00:41:34.738Z,10.15
2024-05-09T00:42:34.645Z,10.15
2024-05-09T00:43:34.620Z,10.12
2024-05-09T00:44:34.614Z,10.09
2024-05-09T00:45:34.603Z,10.10
2024-05-09T00:46:34.560Z,10.15
2024-05-09T00:47:34.854Z,10.20
2024-05-09T00:48:34.750Z,10.23
2024-05-09T00:49:34.783Z,10.28
2024-05-09T00:50:36.893Z,10.27
2024-05-09T00:51:34.492Z,10.28
2024-05-09T00:52:34.511Z,10.27
2024-05-09T00:53:34.688Z,10.25
2024-05-09T00:54:34.454Z,10.23
2024-05-09T00:55:34.443Z,10.17
2024-05-09T00:56:34.476Z,10.13
2024-05-09T00:57:34.417Z,10.10
2024-05-09T00:58:34.409Z,10.06
2024-05-09T00:59:34.416Z,10.03
2024-05-09T01:00:39.115Z,9.97
2024-05-09T01:01:34.494Z,9.92
2024-05-09T01:02:34.492Z,9.91
2024-05-09T01:03:34.501Z,9.92
2024-05-09T01:04:34.362Z,9.91
2024-05-09T01:05:34.801Z,9.91
2024-05-09T01:06:34.304Z,9.88
2024-05-09T01:07:34.323Z,9.90
2024-05-09T01:08:34.336Z,9.91
2024-05-09T01:09:34.268Z,9.85
2024-05-09T01:10:35.591Z,9.87
2024-05-09T01:11:34.357Z,9.84
2024-05-09T01:12:34.275Z,9.84
2024-05-09T01:13:34.223Z,9.81
2024-05-09T01:14:34.257Z,9.77
2024-05-09T01:15:34.388Z,9.74
2024-05-09T01:16:34.159Z,9.72
2024-05-09T01:17:34.397Z,9.70
2024-05-09T01:18:34.258Z,9.67
2024-05-09T01:19:34.141Z,9.67
2024-05-09T01:20:41.148Z,9.70
2024-05-09T01:21:34.115Z,9.72
2024-05-09T01:22:34.090Z,9.72
2024-05-09T01:23:34.202Z,9.70
2024-05-09T01:24:34.068Z,9.67
2024-05-09T01:25:34.057Z,9.67
2024-05-09T01:26:34.116Z,9.67
2024-05-09T01:27:34.015Z,9.67
2024-05-09T01:28:34.003Z,9.69
2024-05-09T01:29:34.048Z,9.70
2024-05-09T01:30:36.518Z,9.69
2024-05-09T01:31:33.998Z,9.69
2024-05-09T01:32:34.087Z,9.64
2024-05-09T01:33:34.056Z,9.63
2024-05-09T01:34:33.943Z,9.59
2024-05-09T01:35:33.997Z,9.62
2024-05-09T01:36:33.934Z,9.63
2024-05-09T01:37:33.893Z,9.64
2024-05-09T01:38:33.949Z,9.58
2024-05-09T01:39:33.863Z,9.52
2024-05-09T01:40:38.379Z,9.49
2024-05-09T01:41:33.861Z,9.47
2024-05-09T01:42:33.873Z,9.42
2024-05-09T01:43:33.810Z,9.37
2024-05-09T01:44:33.862Z,9.31
2024-05-09T01:45:33.822Z,9.31
2024-05-09T01:46:33.825Z,9.33
2024-05-09T01:47:33.902Z,9.31
2024-05-09T01:48:33.947Z,9.27
2024-05-09T01:49:33.869Z,9.24
2024-05-09T01:50:38.887Z,9.24
2024-05-09T01:51:33.742Z,9.22
2024-05-09T01:52:33.721Z,9.21
2024-05-09T01:53:33.774Z,9.22
2024-05-09T01:54:33.679Z,9.21
2024-05-09T01:55:33.669Z,9.22
2024-05-09T01:56:33.716Z,9.24
2024-05-09T01:57:33.641Z,9.21
2024-05-09T01:58:33.649Z,9.15
2024-05-09T01:59:33.660Z,9.11
2024-05-09T02:00:39.150Z,9.12
2024-05-09T02:01:55.472Z,9.09
2024-05-09T02:02:33.674Z,9.05
2024-05-09T02:03:33.721Z,9.05
2024-05-09T02:04:33.639Z,9.05
2024-05-09T02:05:33.594Z,9.08
2024-05-09T02:06:33.505Z,9.11
2024-05-09T02:07:33.511Z,9.13
2024-05-09T02:08:33.614Z,9.13
2024-05-09T02:09:33.504Z,9.16
2024-05-09T02:10:33.785Z,9.19
2024-05-09T02:11:33.550Z,9.21
2024-05-09T02:12:33.531Z,9.19
2024-05-09T02:13:33.440Z,9.19
2024-05-09T02:14:33.446Z,9.19
2024-05-09T02:15:33.394Z,9.18
2024-05-09T02:16:33.373Z,9.13
2024-05-09T02:17:33.525Z,9.12
2024-05-09T02:18:33.403Z,9.08
2024-05-09T02:19:33.505Z,9.03
2024-05-09T02:20:36.499Z,8.99
2024-05-09T02:21:33.310Z,8.97
2024-05-09T02:22:33.316Z,8.97
2024-05-09T02:23:33.398Z,8.96
2024-05-09T02:24:33.311Z,8.96
2024-05-09T02:25:33.297Z,8.99
2024-05-09T02:26:33.296Z,9.02
2024-05-09T02:27:33.233Z,9.05
2024-05-09T02:28:33.218Z,9.03
2024-05-09T02:29:33.317Z,9.02
2024-05-09T02:30:39.350Z,9.03
2024-05-09T02:31:33.176Z,9.08
2024-05-09T02:32:33.326Z,9.08
2024-05-09T02:33:33.513Z,9.08
2024-05-09T02:34:33.200Z,9.03
2024-05-09T02:35:33.267Z,9.05
2024-05-09T02:36:33.143Z,9.00
2024-05-09T02:37:33.103Z,9.00
2024-05-09T02:38:33.299Z,9.00
2024-05-09T02:39:33.083Z,8.99
2024-05-09T02:40:37.244Z,8.99
2024-05-09T02:41:33.145Z,8.99
2024-05-09T02:42:33.038Z,8.97
2024-05-09T02:43:33.052Z,8.96
2024-05-09T02:44:33.071Z,8.96
2024-05-09T02:45:33.201Z,8.92
2024-05-09T02:46:32.978Z,8.89
2024-05-09T02:47:33.111Z,8.89
2024-05-09T02:48:33.190Z,8.87
2024-05-09T02:49:33.057Z,8.90
2024-05-09T02:50:38.039Z,8.92
2024-05-09T02:51:32.913Z,8.95
2024-05-09T02:52:32.940Z,8.95
2024-05-09T02:53:32.989Z,8.92
2024-05-09T02:54:32.881Z,8.87
2024-05-09T02:55:33.087Z,8.86
2024-05-09T02:56:32.876Z,8.86
2024-05-09T02:57:32.835Z,8.82
2024-05-09T02:58:32.842Z,8.78
2024-05-09T02:59:32.870Z,8.71
2024-05-09T03:00:38.855Z,8.68
2024-05-09T03:01:32.836Z,8.71
2024-05-09T03:02:32.789Z,8.69
2024-05-09T03:03:33.102Z,8.64
2024-05-09T03:04:32.859Z,8.61
2024-05-09T03:05:32.898Z,8.56
2024-05-09T03:06:32.725Z,8.57
2024-05-09T03:07:32.704Z,8.52
2024-05-09T03:08:32.788Z,8.45
2024-05-09T03:09:32.703Z,8.42
2024-05-09T03:10:36.298Z,8.41
2024-05-09T03:11:32.718Z,8.45
2024-05-09T03:12:33.259Z,8.52
2024-05-09T03:13:32.632Z,8.53
2024-05-09T03:14:32.667Z,8.56
2024-05-09T03:15:32.620Z,8.56
2024-05-09T03:16:32.585Z,8.56
2024-05-09T03:17:32.806Z,8.52
2024-05-09T03:18:32.620Z,8.49
2024-05-09T03:19:32.603Z,8.46
2024-05-09T03:20:35.069Z,8.44
2024-05-09T03:21:32.532Z,8.46
2024-05-09T03:22:32.515Z,8.50
2024-05-09T03:23:32.590Z,8.45
2024-05-09T03:24:32.481Z,8.45
2024-05-09T03:25:32.482Z,8.44
2024-05-09T03:26:32.590Z,8.49
2024-05-09T03:27:32.462Z,8.45
2024-05-09T03:28:32.423Z,8.38
2024-05-09T03:29:32.465Z,8.35
2024-05-09T03:30:40.006Z,8.31
2024-05-09T03:31:32.386Z,8.27
2024-05-09T03:32:32.501Z,8.27
2024-05-09T03:33:32.573Z,8.32
2024-05-09T03:34:32.373Z,8.31
2024-05-09T03:35:32.409Z,8.28
2024-05-09T03:36:32.335Z,8.21
2024-05-09T03:37:32.309Z,8.20
2024-05-09T03:38:32.468Z,8.17
2024-05-09T03:39:32.298Z,8.16
2024-05-09T03:40:32.318Z,8.17
2024-05-09T03:41:32.492Z,8.17
2024-05-09T03:42:32.250Z,8.18
2024-05-09T03:43:32.240Z,8.17
2024-05-09T03:44:32.252Z,8.16
2024-05-09T03:45:32.212Z,8.18
2024-05-09T03:46:32.207Z,8.20
2024-05-09T03:47:32.280Z,8.21
2024-05-09T03:48:32.261Z,8.21
2024-05-09T03:49:32.212Z,8.21
2024-05-09T03:50:35.577Z,8.24
2024-05-09T03:51:32.214Z,8.24
2024-05-09T03:52:32.143Z,8.28
2024-05-09T03:53:32.251Z,8.32
2024-05-09T03:54:32.103Z,8.36
2024-05-09T03:55:32.233Z,8.36
2024-05-09T03:56:32.166Z,8.41
2024-05-09T03:57:32.094Z,8.41
2024-05-09T03:58:32.037Z,8.38
2024-05-09T03:59:32.138Z,8.39
2024-05-09T04:00:38.015Z,8.36
2024-05-09T04:01:32.199Z,8.32
2024-05-09T04:02:32.107Z,8.28
2024-05-09T04:03:32.083Z,8.28
2024-05-09T04:04:32.209Z,8.27
2024-05-09T04:05:32.048Z,8.24
2024-05-09T04:06:31.932Z,8.21
2024-05-09T04:07:31.951Z,8.21
2024-05-09T04:08:31.983Z,8.21
2024-05-09T04:09:31.914Z,8.21
2024-05-09T04:10:34.202Z,8.24
2024-05-09T04:11:31.937Z,8.26
2024-05-09T04:12:31.882Z,8.27
2024-05-09T04:13:31.856Z,8.27
2024-05-09T04:14:31.920Z,8.27
2024-05-09T04:15:32.394Z,8.27
2024-05-09T04:16:31.802Z,8.27
2024-05-09T04:17:32.052Z,8.32
2024-05-09T04:18:31.831Z,8.34
2024-05-09T04:19:31.918Z,8.38
2024-05-09T04:20:38.335Z,8.41
2024-05-09T04:21:31.739Z,8.44
2024-05-09T04:22:31.728Z,8.42
2024-05-09T04:23:31.758Z,8.44
2024-05-09T04:24:31.733Z,8.42
2024-05-09T04:25:31.752Z,8.44
2024-05-09T04:26:31.776Z,8.44
2024-05-09T04:27:31.664Z,8.44
2024-05-09T04:28:31.659Z,8.44
2024-05-09T04:29:31.668Z,8.45
2024-05-09T04:30:37.996Z,8.50
2024-05-09T04:31:31.623Z,8.52
2024-05-09T04:32:31.777Z,8.54
2024-05-09T04:33:31.762Z,8.54
2024-05-09T04:34:31.687Z,8.52
2024-05-09T04:35:31.687Z,8.50
2024-05-09T04:36:31.569Z,8.49
2024-05-09T04:37:31.557Z,8.46
2024-05-09T04:38:31.680Z,8.50
2024-05-09T04:39:31.503Z,8.54
2024-05-09T04:40:35.064Z,8.57
2024-05-09T04:41:31.550Z,8.56
2024-05-09T04:42:31.583Z,8.59
2024-05-09T04:43:31.467Z,8.59
2024-05-09T04:44:31.504Z,8.64
2024-05-09T04:45:31.593Z,8.64
2024-05-09T04:46:31.413Z,8.66
2024-05-09T04:47:31.532Z,8.63
2024-05-09T04:48:31.490Z,8.66
2024-05-09T04:49:31.469Z,8.66
2024-05-09T04:50:36.907Z,8.63
2024-05-09T04:51:31.351Z,8.68
2024-05-09T04:52:31.340Z,8.72
2024-05-09T04:53:31.368Z,8.79
2024-05-09T04:54:36.233Z,8.79
2024-05-09T04:55:31.313Z,8.84
2024-05-09T04:56:31.367Z,8.89
2024-05-09T04:57:31.400Z,8.95
2024-05-09T04:58:31.254Z,8.96
2024-05-09T04:59:31.437Z,8.99
2024-05-09T05:00:36.511Z,9.00
2024-05-09T05:01:31.296Z,9.02
2024-05-09T05:02:31.446Z,9.02
2024-05-09T05:03:31.437Z,9.05
2024-05-09T05:04:31.343Z,9.09
2024-05-09T05:05:31.277Z,9.12
2024-05-09T05:06:31.161Z,9.13
2024-05-09T05:07:31.127Z,9.15
2024-05-09T05:08:31.165Z,9.12
2024-05-09T05:09:31.114Z,9.00
2024-05-09T05:10:36.029Z,9.00
2024-05-09T05:11:31.190Z,8.93
2024-05-09T05:12:31.229Z,8.92
2024-05-09T05:13:31.087Z,8.93
2024-05-09T05:14:31.140Z,8.95
2024-05-09T05:15:31.083Z,8.97
2024-05-09T05:16:31.070Z,9.08
2024-05-09T05:17:31.221Z,9.13
2024-05-09T05:18:31.024Z,9.13
2024-05-09T05:19:31.261Z,9.12
2024-05-09T05:20:33.739Z,9.11
2024-05-09T05:21:30.980Z,9.09
2024-05-09T05:22:30.965Z,9.13
2024-05-09T05:23:30.967Z,9.16
2024-05-09T05:24:30.916Z,9.19
2024-05-09T05:25:30.903Z,9.21
2024-05-09T05:26:30.947Z,9.27
2024-05-09T05:27:30.883Z,9.34
2024-05-09T05:28:30.884Z,9.39
2024-05-09T05:29:30.905Z,9.36
2024-05-09T05:30:34.569Z,9.34
2024-05-09T05:31:30.856Z,9.34
2024-05-09T05:32:31.022Z,9.36
2024-05-09T05:33:31.140Z,9.33
2024-05-09T05:34:30.791Z,9.33
2024-05-09T05:35:30.874Z,9.36
2024-05-09T05:36:30.811Z,9.37
2024-05-09T05:37:30.738Z,9.40
2024-05-09T05:38:30.754Z,9.45
2024-05-09T05:39:30.758Z,9.47
2024-05-09T05:40:36.335Z,9.47
2024-05-09T05:41:30.778Z,9.45
2024-05-09T05:42:30.737Z,9.44
2024-05-09T05:43:30.667Z,9.47
2024-05-09T05:44:30.731Z,9.47
2024-05-09T05:45:30.632Z,9.47
2024-05-09T05:46:30.624Z,9.51
2024-05-09T05:47:30.716Z,9.54
2024-05-09T05:48:30.698Z,9.55
2024-05-09T05:49:30.663Z,9.55
2024-05-09T05:50:35.857Z,9.54
2024-05-09T05:51:30.563Z,9.58
2024-05-09T05:52:30.539Z,9.63
2024-05-09T05:53:30.632Z,9.66
2024-05-09T05:54:30.543Z,9.67
2024-05-09T05:55:30.497Z,9.67
2024-05-09T05:56:30.596Z,9.67
2024-05-09T05:57:30.487Z,9.64
2024-05-09T05:58:30.468Z,9.63
2024-05-09T05:59:30.537Z,9.63
2024-05-09T06:00:37.739Z,9.63
2024-05-09T06:01:30.483Z,9.64
2024-05-09T06:02:30.548Z,9.66
2024-05-09T06:03:30.562Z,9.66
2024-05-09T06:04:30.440Z,9.72
2024-05-09T06:05:30.522Z,9.74
2024-05-09T06:06:30.414Z,9.73
2024-05-09T06:07:30.349Z,9.73
2024-05-09T06:08:30.702Z,9.73
2024-05-09T06:09:30.331Z,9.76
2024-05-09T06:10:37.705Z,9.77
2024-05-09T06:11:30.362Z,9.81
2024-05-09T06:12:30.330Z,9.74
2024-05-09T06:13:30.286Z,9.72
2024-05-09T06:14:30.376Z,9.73
2024-05-09T06:15:30.257Z,9.77
2024-05-09T06:16:30.282Z,9.80
2024-05-09T06:17:30.342Z,9.80
2024-05-09T06:18:30.557Z,9.84
2024-05-09T06:19:30.366Z,9.85
2024-05-09T06:20:35.868Z,9.84
2024-05-09T06:21:30.227Z,9.84
2024-05-09T06:22:30.152Z,9.80
2024-05-09T06:23:30.272Z,9.84
2024-05-09T06:24:30.114Z,9.85
2024-05-09T06:25:30.195Z,9.87
2024-05-09T06:26:30.262Z,9.91
2024-05-09T06:27:30.074Z,9.90
2024-05-09T06:28:30.073Z,9.88
2024-05-09T06:29:30.342Z,9.87
2024-05-09T06:30:37.581Z,9.82
2024-05-09T06:31:30.042Z,9.82
2024-05-09T06:32:30.193Z,9.85
2024-05-09T06:33:30.296Z,9.90
2024-05-09T06:34:30.157Z,9.92
2024-05-09T06:35:30.155Z,9.97
2024-05-09T06:36:29.963Z,10.03
2024-05-09T06:37:29.955Z,10.06
2024-05-09T06:38:30.026Z,10.10
2024-05-09T06:39:29.929Z,10.12
2024-05-09T06:40:36.871Z,10.15
2024-05-09T06:41:30.005Z,10.13
2024-05-09T06:42:29.914Z,10.12
2024-05-09T06:43:29.868Z,10.10
2024-05-09T06:44:29.945Z,10.15
2024-05-09T06:45:29.853Z,10.15
2024-05-09T06:46:29.841Z,10.17
2024-05-09T06:47:29.919Z,10.20
2024-05-09T06:48:29.963Z,10.25
2024-05-09T06:49:30.090Z,10.28
2024-05-09T06:50:36.839Z,10.30
2024-05-09T06:51:29.767Z,10.31
2024-05-09T06:52:29.801Z,10.34
2024-05-09T06:53:29.786Z,10.33
2024-05-09T06:54:29.744Z,10.23
2024-05-09T06:55:29.723Z,10.17
2024-05-09T06:56:29.843Z,10.21
2024-05-09T06:57:29.692Z,10.25
2024-05-09T06:58:29.676Z,10.30
2024-05-09T06:59:29.852Z,10.36
2024-05-09T07:00:35.961Z,10.42
2024-05-09T07:01:29.656Z,10.46
2024-05-09T07:02:29.677Z,10.51
2024-05-09T07:03:29.773Z,10.51
2024-05-09T07:04:29.695Z,10.49
2024-05-09T07:05:29.722Z,10.48
2024-05-09T07:06:29.563Z,10.43
2024-05-09T07:07:29.546Z,10.39
2024-05-09T07:08:29.635Z,10.41
2024-05-09T07:09:29.521Z,10.46
2024-05-09T07:10:34.782Z,10.51
2024-05-09T07:11:29.611Z,10.58
2024-05-09T07:12:29.623Z,10.61
2024-05-09T07:13:29.476Z,10.69
2024-05-09T07:14:29.792Z,10.75
2024-05-09T07:15:29.451Z,10.77
2024-05-09T07:16:29.460Z,10.80
2024-05-09T07:17:29.783Z,10.86
2024-05-09T07:18:29.746Z,10.87
2024-05-09T07:19:29.528Z,10.90
2024-05-09T07:20:34.549Z,10.89
2024-05-09T07:21:29.374Z,10.87
2024-05-09T07:22:29.362Z,10.87
2024-05-09T07:23:29.390Z,10.90
2024-05-09T07:24:29.340Z,10.94
2024-05-09T07:25:29.542Z,10.98
2024-05-09T07:26:29.371Z,11.02
2024-05-09T07:27:29.290Z,11.05
2024-05-09T07:28:29.332Z,11.10
2024-05-09T07:29:29.313Z,11.08
2024-05-09T07:30:33.502Z,11.10
2024-05-09T07:31:29.242Z,11.13
2024-05-09T07:32:29.343Z,11.15
2024-05-09T07:33:29.399Z,11.16
2024-05-09T07:34:29.312Z,11.15
2024-05-09T07:35:29.470Z,11.18
2024-05-09T07:36:29.173Z,11.19
2024-05-09T07:37:29.152Z,11.20
2024-05-09T07:38:29.284Z,11.25
2024-05-09T07:39:29.135Z,11.27
2024-05-09T07:40:35.608Z,11.30
2024-05-09T07:41:29.199Z,11.30
2024-05-09T07:42:29.094Z,11.31
2024-05-09T07:43:29.122Z,11.34
2024-05-09T07:44:29.205Z,11.37
2024-05-09T07:45:45.389Z,11.41
2024-05-09T07:47:36.870Z,11.40
2024-05-09T07:50:53.200Z,11.41
2024-05-09T07:53:32.528Z,11.33
2024-05-09T07:53:49.450Z,11.41
2024-05-09T07:54:00.448Z,11.51
2024-05-09T07:54:56.090Z,11.56
2024-05-09T07:55:56.629Z,11.62
2024-05-09T07:56:56.062Z,11.70
2024-05-09T07:57:55.907Z,11.71
2024-05-09T07:58:56.384Z,11.77
2024-05-09T07:59:55.846Z,11.86
2024-05-09T08:00:55.991Z,11.93
2024-05-09T08:01:55.912Z,12.00
2024-05-09T08:02:55.824Z,12.07
2024-05-09T08:03:56.034Z,12.08
2024-05-09T08:04:55.908Z,12.15
2024-05-09T08:05:55.783Z,12.23
2024-05-09T08:06:55.803Z,12.26
2024-05-09T08:07:55.756Z,12.30
2024-05-09T08:08:56.062Z,12.36
2024-05-09T08:09:55.695Z,12.45
2024-05-09T08:10:55.771Z,12.51
2024-05-09T08:11:55.717Z,12.54
2024-05-09T08:12:55.719Z,12.55
2024-05-09T08:13:55.633Z,12.61
2024-05-09T08:14:55.688Z,12.66
2024-05-09T08:15:55.661Z,12.73
2024-05-09T08:16:55.660Z,12.80
2024-05-09T08:17:55.783Z,12.84
2024-05-09T08:18:55.634Z,12.90
2024-05-09T08:19:55.567Z,12.95
2024-05-09T08:20:55.616Z,13.01
2024-05-09T08:21:55.611Z,13.03
2024-05-09T08:22:55.518Z,13.08
2024-05-09T08:23:55.504Z,13.11
2024-05-09T08:24:55.559Z,13.16
2024-05-09T08:25:55.506Z,13.19
2024-05-09T08:26:55.488Z,13.24
2024-05-09T08:27:55.533Z,13.27
2024-05-09T08:28:55.436Z,13.30
2024-05-09T08:29:55.490Z,13.33
2024-05-09T08:30:55.528Z,13.40
2024-05-09T08:31:55.478Z,13.45
2024-05-09T08:32:55.417Z,13.47
2024-05-09T08:33:55.498Z,13.54
2024-05-09T08:34:55.379Z,13.55
2024-05-09T08:35:55.341Z,13.58
2024-05-09T08:36:57.528Z,13.62
2024-05-09T08:37:55.385Z,13.70
2024-05-09T08:38:55.307Z,13.75
2024-05-09T08:39:55.358Z,13.78
2024-05-09T08:40:55.319Z,13.82
2024-05-09T08:41:55.254Z,13.87
2024-05-09T08:42:55.295Z,13.93
2024-05-09T08:43:55.331Z,13.97
2024-05-09T08:44:55.229Z,14.00
2024-05-09T08:45:55.318Z,14.04
2024-05-09T08:46:55.195Z,14.11
2024-05-09T08:47:55.329Z,14.16
2024-05-09T08:48:55.396Z,14.22
2024-05-09T08:49:55.277Z,14.25
2024-05-09T08:50:55.188Z,14.28
2024-05-09T08:51:55.170Z,14.34
2024-05-09T08:52:55.132Z,14.40
2024-05-09T08:53:55.108Z,14.43
2024-05-09T08:54:55.173Z,14.44
2024-05-09T08:55:55.084Z,14.45
2024-05-09T08:56:55.071Z,14.49
2024-05-09T08:57:55.158Z,14.53
2024-05-09T08:58:55.051Z,14.56
2024-05-09T08:59:55.052Z,14.59
2024-05-09T09:00:55.161Z,14.66
2024-05-09T09:01:55.062Z,14.68
2024-05-09T09:02:55.026Z,14.68
2024-05-09T09:03:55.255Z,14.70
2024-05-09T09:04:55.055Z,14.73
2024-05-09T09:05:54.938Z,14.78
2024-05-09T09:06:57.693Z,14.82
2024-05-09T09:07:54.920Z,14.89
2024-05-09T09:08:54.925Z,14.99
2024-05-09T09:09:54.935Z,15.10
2024-05-09T09:10:54.976Z,15.15
2024-05-09T09:11:54.893Z,15.23
2024-05-09T09:12:54.919Z,15.25
2024-05-09T09:13:54.870Z,15.27
2024-05-09T09:14:54.858Z,15.30
2024-05-09T09:15:54.889Z,15.32
2024-05-09T09:16:54.804Z,15.32
2024-05-09T09:17:54.838Z,15.33
2024-05-09T09:18:55.080Z,15.35
2024-05-09T09:19:54.873Z,15.41
2024-05-09T09:20:54.827Z,15.45
2024-05-09T09:21:54.856Z,15.48
2024-05-09T09:22:54.734Z,15.54
2024-05-09T09:23:54.727Z,15.62
2024-05-09T09:24:54.737Z,15.67
2024-05-09T09:25:54.740Z,15.70
2024-05-09T09:26:54.801Z,15.73
2024-05-09T09:27:54.809Z,15.78
2024-05-09T09:28:54.643Z,15.80
2024-05-09T09:29:54.626Z,15.81
2024-05-09T09:30:54.712Z,15.83
2024-05-09T09:31:54.597Z,15.85
2024-05-09T09:32:54.708Z,15.88
2024-05-09T09:33:54.797Z,15.91
2024-05-09T09:34:54.641Z,15.94
2024-05-09T09:35:54.549Z,15.98
2024-05-09T09:36:54.604Z,15.99
2024-05-09T09:37:54.527Z,16.08
2024-05-09T09:38:54.508Z,16.13
2024-05-09T09:39:54.551Z,16.21
2024-05-09T09:40:54.557Z,16.24
2024-05-09T09:41:54.489Z,16.25
2024-05-09T09:42:54.541Z,16.29
2024-05-09T09:43:54.457Z,16.32
2024-05-09T09:45:02.200Z,16.36
2024-05-09T09:45:54.429Z,16.39
2024-05-09T09:46:54.468Z,16.41
2024-05-09T09:47:54.514Z,16.46
2024-05-09T09:48:54.489Z,16.54
2024-05-09T09:49:54.454Z,16.58
2024-05-09T09:50:54.349Z,16.61
2024-05-09T09:51:54.384Z,16.69
2024-05-09T09:52:54.357Z,16.76
2024-05-09T09:53:54.312Z,16.79
2024-05-09T09:54:54.414Z,16.77
2024-05-09T09:55:54.302Z,16.82
2024-05-09T09:56:54.313Z,16.83
2024-05-09T09:57:54.315Z,16.83
2024-05-09T09:58:54.242Z,16.87
2024-05-09T09:59:54.240Z,16.99
2024-05-09T10:00:54.456Z,17.07
2024-05-09T10:01:54.295Z,17.12
2024-05-09T10:02:54.285Z,17.16
2024-05-09T10:03:54.327Z,17.20
2024-05-09T10:04:54.298Z,17.27
2024-05-09T10:05:54.205Z,17.30
2024-05-09T10:06:54.224Z,17.31
2024-05-09T10:07:54.139Z,17.30
2024-05-09T10:08:54.115Z,17.30
2024-05-09T10:09:54.180Z,17.28
2024-05-09T10:10:54.297Z,17.32
2024-05-09T10:11:59.764Z,17.34
2024-05-09T10:12:54.164Z,17.32
2024-05-09T10:13:54.060Z,17.34
2024-05-09T10:14:54.024Z,17.37
2024-05-09T10:15:54.611Z,17.37
2024-05-09T10:16:54.071Z,17.39
2024-05-09T10:17:54.088Z,17.42
2024-05-09T10:18:54.144Z,17.47
2024-05-09T10:19:54.153Z,17.53
2024-05-09T10:20:53.943Z,17.63
2024-05-09T10:21:53.978Z,17.73
2024-05-09T10:22:53.919Z,17.79
2024-05-09T10:23:53.929Z,17.90
2024-05-09T10:24:54.048Z,17.93
2024-05-09T10:25:53.887Z,17.95
2024-05-09T10:26:53.888Z,17.98
2024-05-09T10:27:53.994Z,18.02
2024-05-09T10:28:53.853Z,18.08
2024-05-09T10:29:53.823Z,18.11
2024-05-09T10:30:53.930Z,18.13
2024-05-09T10:31:53.876Z,18.18
2024-05-09T10:32:53.924Z,18.23
2024-05-09T10:33:53.975Z,18.23
2024-05-09T10:34:53.838Z,18.24
2024-05-09T10:35:53.746Z,18.23
2024-05-09T10:36:53.921Z,18.28
2024-05-09T10:37:53.736Z,18.31
2024-05-09T10:38:53.718Z,18.34
2024-05-09T10:39:53.736Z,18.31
2024-05-09T10:40:53.724Z,18.31
2024-05-09T10:41:53.673Z,18.31
2024-05-09T10:42:53.700Z,18.27
2024-05-09T10:43:53.632Z,18.24
2024-05-09T10:44:53.656Z,18.24
2024-05-09T10:45:53.676Z,18.28
2024-05-09T10:46:53.626Z,18.33
2024-05-09T10:47:53.757Z,18.39
2024-05-09T10:48:53.736Z,18.42
2024-05-09T10:49:53.684Z,18.43
2024-05-09T10:50:53.593Z,18.49
2024-05-09T10:51:53.667Z,18.52
2024-05-09T10:52:53.558Z,18.57
2024-05-09T10:53:53.535Z,18.63
2024-05-09T10:54:53.564Z,18.68
2024-05-09T10:55:53.477Z,18.71
2024-05-09T10:56:53.472Z,18.73
2024-05-09T10:57:53.674Z,18.71
2024-05-09T10:58:53.433Z,18.73
2024-05-09T10:59:53.467Z,18.76
2024-05-09T11:00:53.526Z,18.83
2024-05-09T11:01:53.425Z,18.89
2024-05-09T11:02:53.402Z,18.92
2024-05-09T11:03:53.646Z,18.94
2024-05-09T11:04:53.488Z,18.94
2024-05-09T11:05:53.459Z,18.98
2024-05-09T11:06:53.351Z,19.00
2024-05-09T11:07:53.336Z,19.04
2024-05-09T11:08:53.308Z,19.09
2024-05-09T11:09:53.341Z,19.12
2024-05-09T11:10:53.550Z,19.23
2024-05-09T11:11:53.314Z,19.27
2024-05-09T11:12:53.301Z,19.34
2024-05-09T11:13:53.255Z,19.35
2024-05-09T11:14:53.216Z,19.42
2024-05-09T11:15:53.232Z,19.48
2024-05-09T11:16:53.228Z,19.52
2024-05-09T11:17:53.339Z,19.56
2024-05-09T11:18:53.320Z,19.60
2024-05-09T11:19:53.189Z,19.63
2024-05-09T11:20:53.175Z,19.63
2024-05-09T11:21:53.219Z,19.63
2024-05-09T11:22:53.135Z,19.64
2024-05-09T11:23:53.269Z,19.63
2024-05-09T11:24:53.294Z,19.62
2024-05-09T11:25:53.090Z,19.63
2024-05-09T11:26:53.063Z,19.70
2024-05-09T11:27:53.135Z,19.72
2024-05-09T11:28:53.050Z,19.75
2024-05-09T11:29:53.024Z,19.79
2024-05-09T11:30:53.012Z,19.82
2024-05-09T11:31:53.187Z,19.82
2024-05-09T11:32:53.193Z,19.81
2024-05-09T11:33:53.198Z,19.82
2024-05-09T11:34:52.954Z,19.90
2024-05-09T11:35:52.941Z,19.97
2024-05-09T11:36:52.979Z,20.03
2024-05-09T11:37:52.914Z,20.04
2024-05-09T11:38:52.913Z,20.04
2024-05-09T11:39:52.922Z,20.08
2024-05-09T11:40:52.918Z,20.11
2024-05-09T11:41:52.879Z,20.10
2024-05-09T11:42:53.585Z,20.08
2024-05-09T11:43:52.848Z,20.10
2024-05-09T11:44:52.836Z,20.11
2024-05-09T11:45:52.853Z,20.12
2024-05-09T11:46:52.795Z,20.12
2024-05-09T11:47:52.874Z,20.12
2024-05-09T11:48:52.894Z,20.14
2024-05-09T11:49:52.851Z,20.15
2024-05-09T11:50:52.743Z,20.17
2024-05-09T11:51:52.750Z,20.18
2024-05-09T11:52:52.718Z,20.19
2024-05-09T11:53:52.719Z,20.24
2024-05-09T11:54:52.735Z,20.24
2024-05-09T11:55:52.721Z,20.24
2024-05-09T11:56:52.659Z,20.29
2024-05-09T11:57:52.686Z,20.30
2024-05-09T11:58:52.641Z,20.32
2024-05-09T11:59:52.635Z,20.36
2024-05-09T12:00:52.748Z,20.34
2024-05-09T12:01:52.745Z,20.32
2024-05-09T12:02:52.694Z,20.36
2024-05-09T12:03:52.754Z,20.39
2024-05-09T12:04:52.657Z,20.40
2024-05-09T12:05:52.580Z,20.46
2024-05-09T12:06:52.554Z,20.50
2024-05-09T12:07:52.521Z,20.52
2024-05-09T12:08:52.508Z,20.55
2024-05-09T12:09:52.563Z,20.56
2024-05-09T12:10:52.777Z,20.50
2024-05-09T12:11:52.510Z,20.44
2024-05-09T12:12:52.525Z,20.39
2024-05-09T12:13:52.478Z,20.33
2024-05-09T12:14:52.427Z,20.36
2024-05-09T12:15:52.486Z,20.42
2024-05-09T12:16:52.468Z,20.50
2024-05-09T12:17:52.456Z,20.56
2024-05-09T12:18:52.539Z,20.63
2024-05-09T12:19:52.370Z,20.70
2024-05-09T12:20:52.368Z,20.77
2024-05-09T12:21:52.361Z,20.86
2024-05-09T12:22:52.330Z,20.93
2024-05-09T12:23:52.314Z,20.96
2024-05-09T12:24:52.346Z,20.96
2024-05-09T12:25:52.288Z,21.00
2024-05-09T12:26:52.262Z,21.03
2024-05-09T12:27:52.312Z,21.07
2024-05-09T12:28:52.255Z,21.13
2024-05-09T12:29:52.250Z,21.15
2024-05-09T12:30:52.246Z,21.15
2024-05-09T12:31:52.230Z,21.22
2024-05-09T12:32:52.234Z,21.23
2024-05-09T12:33:52.244Z,21.25
2024-05-09T12:34:52.157Z,21.30
2024-05-09T12:35:52.204Z,21.32
2024-05-09T12:36:52.154Z,21.28
2024-05-09T12:37:52.132Z,21.20
2024-05-09T12:38:52.104Z,21.20
2024-05-09T12:39:52.127Z,21.19
2024-05-09T12:40:52.359Z,21.19
2024-05-09T12:41:52.078Z,21.22
2024-05-09T12:42:52.121Z,21.25
2024-05-09T12:43:52.071Z,21.29
2024-05-09T12:44:52.058Z,21.30
2024-05-09T12:45:52.116Z,21.25
2024-05-09T12:46:52.047Z,21.30
2024-05-09T12:47:52.121Z,21.33
2024-05-09T12:48:52.271Z,21.20
2024-05-09T12:49:52.054Z,21.03
2024-05-09T12:50:52.003Z,20.96
2024-05-09T12:51:51.985Z,20.96
2024-05-09T12:52:51.982Z,21.01
2024-05-09T12:53:51.946Z,21.01
2024-05-09T12:54:52.035Z,21.03
2024-05-09T12:55:56.927Z,21.08
2024-05-09T12:56:51.905Z,21.10
2024-05-09T12:57:51.933Z,21.14
2024-05-09T12:58:52.039Z,21.17
2024-05-09T12:59:51.915Z,21.26
2024-05-09T13:00:52.316Z,21.35
2024-05-09T13:01:52.065Z,21.44
2024-05-09T13:02:51.816Z,21.50
2024-05-09T13:03:52.149Z,21.59
2024-05-09T13:04:51.891Z,21.63
2024-05-09T13:05:51.981Z,21.69
2024-05-09T13:06:51.763Z,21.70